Time;durP1;ratioP1;P1;durP2;ratioP2;P2;SDS_P1;SDS_P2;PMS_P1;PMS_P2;Temp;Humidity;BMP_temperature;BMP_pressure;BME280_temperature;BME280_humidity;BME280_pressure;Samples;Min_cycle;Max_cycle;Signal;HPM_P1;HPM_P2
2021/04/23 00:01:10;;;;;;;11.13;4.50;;;5.50;94.60;;;;;;5057622;28;20443;-85
2021/04/23 00:03:43;;;;;;;7.73;3.87;;;5.50;95.60;;;;;;5006213;28;20432;-84
2021/04/23 00:06:31;;;;;;;7.17;4.07;;;5.20;96.20;;;;;;5072158;28;20487;-85
2021/04/23 00:09:14;;;;;;;7.43;4.07;;;5.10;96.50;;;;;;5057397;28;20452;-84
2021/04/23 00:11:57;;;;;;;8.17;4.50;;;5.00;96.80;;;;;;5057462;28;21176;-86
2021/04/23 00:14:49;;;;;;;4.83;3.80;;;5.00;96.80;;;;;;5057041;28;21013;-85
2021/04/23 00:17:16;;;;;;;9.40;3.77;;;4.90;97.30;;;;;;5054868;28;20444;-86
2021/04/23 00:19:44;;;;;;;8.77;3.93;;;4.90;97.50;;;;;;5055503;28;20447;-85
2021/04/23 00:22:10;;;;;;;6.17;3.80;;;4.90;97.70;;;;;;5056440;28;20443;-86
2021/04/23 00:24:37;;;;;;;5.30;3.90;;;4.80;98.10;;;;;;5056205;28;21009;-84
2021/04/23 00:27:03;;;;;;;7.40;4.27;;;4.90;98.60;;;;;;5057009;28;20444;-84
2021/04/23 00:29:29;;;;;;;8.60;4.20;;;4.80;98.80;;;;;;5057786;28;20514;-84
2021/04/23 00:32:16;;;;;;;5.50;4.20;;;4.60;99.20;;;;;;5072497;28;20441;-84
2021/04/23 00:34:42;;;;;;;5.60;3.50;;;4.50;99.90;;;;;;5057421;28;20544;-84
2021/04/23 00:37:09;;;;;;;6.33;3.50;;;4.40;99.90;;;;;;5058174;28;20444;-85
2021/04/23 00:39:45;;;;;;;7.10;3.70;;;4.30;99.90;;;;;;5054898;28;20475;-85
2021/04/23 00:42:11;;;;;;;4.70;3.87;;;4.20;99.90;;;;;;5057425;28;20449;-85
2021/04/23 00:44:37;;;;;;;4.87;3.90;;;4.20;99.90;;;;;;5058663;28;20832;-85
2021/04/23 00:47:03;;;;;;;5.83;3.90;;;4.10;99.90;;;;;;5055994;28;20459;-84
2021/04/23 00:49:32;;;;;;;4.27;3.00;;;4.00;99.90;;;;;;5053403;28;20198;-85
2021/04/23 00:52:00;;;;;;;9.27;3.47;;;3.90;99.90;;;;;;5052574;28;20631;-84
2021/04/23 00:54:28;;;;;;;6.23;3.60;;;4.00;99.90;;;;;;5053145;28;20464;-85
2021/04/23 00:56:54;;;;;;;8.00;3.37;;;3.90;99.90;;;;;;5055245;28;20812;-85
2021/04/23 00:59:20;;;;;;;5.40;4.73;;;3.90;99.90;;;;;;5058324;28;21240;-85
2021/04/23 01:02:04;;;;;;;5.77;3.10;;;3.80;99.90;;;;;;5057656;28;21921;-85
2021/04/23 01:04:31;;;;;;;4.27;3.27;;;3.90;99.90;;;;;;5055932;28;20436;-85
2021/04/23 01:10:23;;;;;;;5.77;3.40;;;4.00;99.90;;;;;;5071586;28;20619;-85
2021/04/23 01:16:18;;;;;;;8.00;3.93;;;3.90;99.90;;;;;;5074349;28;20476;-85
2021/04/23 01:18:50;;;;;;;5.00;3.27;;;3.80;99.90;;;;;;5054057;28;21009;-85
2021/04/23 01:21:25;;;;;;;6.33;3.40;;;3.90;99.90;;;;;;5046052;28;20540;-85
2021/04/23 01:24:03;;;;;;;4.90;3.70;;;3.80;99.90;;;;;;5069234;28;20530;-85
2021/04/23 01:26:54;;;;;;;3.50;3.20;;;3.70;99.90;;;;;;5070990;28;20448;-86
2021/04/23 01:29:22;;;;;;;6.40;3.20;;;3.70;99.90;;;;;;5038238;28;20429;-85
2021/04/23 01:31:51;;;;;;;6.33;3.80;;;3.70;99.90;;;;;;5054363;28;20487;-85
2021/04/23 01:34:23;;;;;;;5.03;3.13;;;3.80;99.90;;;;;;5051532;28;20530;-85
2021/04/23 01:36:50;;;;;;;3.57;3.20;;;3.80;99.90;;;;;;5051527;28;20963;-84
2021/04/23 01:39:20;;;;;;;5.70;3.50;;;3.80;99.90;;;;;;5059384;28;23012;-85
2021/04/23 01:41:46;;;;;;;3.30;2.93;;;3.60;99.90;;;;;;5055449;28;20568;-85
2021/04/23 01:44:13;;;;;;;5.30;3.47;;;3.60;99.90;;;;;;5062179;28;20535;-85
2021/04/23 01:46:40;;;;;;;5.30;3.20;;;3.50;99.90;;;;;;5075664;28;20445;-84
2021/04/23 01:49:12;;;;;;;5.40;3.87;;;3.40;99.90;;;;;;5054476;28;20450;-85
2021/04/23 01:51:45;;;;;;;7.60;3.03;;;3.50;99.90;;;;;;5054044;28;20547;-85
2021/04/23 01:54:20;;;;;;;4.37;3.10;;;3.50;99.90;;;;;;5050385;28;20444;-84
2021/04/23 01:56:51;;;;;;;8.10;3.97;;;3.50;99.90;;;;;;5053408;28;20440;-86
2021/04/23 01:59:19;;;;;;;5.17;3.90;;;3.30;99.90;;;;;;5056776;28;20459;-85
2021/04/23 02:01:45;;;;;;;5.83;3.70;;;3.30;99.90;;;;;;5054259;28;20446;-85
2021/04/23 02:04:14;;;;;;;7.80;3.40;;;3.30;99.90;;;;;;5054934;28;20440;-85
2021/04/23 02:06:44;;;;;;;5.40;3.10;;;3.40;99.90;;;;;;5055541;28;21016;-85
2021/04/23 02:09:12;;;;;;;6.70;3.30;;;3.50;99.90;;;;;;5058779;28;20433;-85
2021/04/23 02:11:41;;;;;;;5.57;3.73;;;3.20;99.90;;;;;;5053313;28;20444;-84
2021/04/23 02:14:08;;;;;;;3.73;3.00;;;2.90;99.90;;;;;;5056077;28;20461;-84
2021/04/23 02:16:34;;;;;;;5.13;3.37;;;2.80;99.90;;;;;;5071574;28;20460;-84
2021/04/23 02:19:00;;;;;;;7.23;3.47;;;2.90;99.90;;;;;;5056658;28;20817;-85
2021/04/23 02:21:26;;;;;;;4.27;2.97;;;2.80;99.90;;;;;;5051592;28;20442;-84
2021/04/23 02:24:07;;;;;;;5.43;3.33;;;2.80;99.90;;;;;;5052749;28;20448;-85
2021/04/23 02:26:35;;;;;;;5.27;3.43;;;2.80;99.90;;;;;;5053655;28;20535;-84
2021/04/23 02:29:05;;;;;;;5.60;3.80;;;2.70;99.90;;;;;;5054669;28;20548;-84
2021/04/23 02:31:31;;;;;;;5.83;3.70;;;2.70;99.90;;;;;;5059804;28;20424;-85
2021/04/23 02:34:00;;;;;;;6.27;3.23;;;2.80;99.90;;;;;;5050802;28;20437;-85
2021/04/23 02:36:28;;;;;;;4.00;3.07;;;2.90;99.90;;;;;;5053634;28;20198;-85
2021/04/23 02:38:54;;;;;;;6.77;3.40;;;2.90;99.90;;;;;;5053309;28;20970;-85
2021/04/23 02:41:20;;;;;;;5.37;3.33;;;2.80;99.90;;;;;;5067319;28;20465;-85
2021/04/23 02:43:56;;;;;;;4.37;3.70;;;2.80;99.90;;;;;;5055543;28;20958;-85
2021/04/23 02:46:25;;;;;;;6.70;3.17;;;2.70;99.90;;;;;;5054483;28;20433;-85
2021/04/23 02:48:51;;;;;;;4.47;3.00;;;2.80;99.90;;;;;;5056453;28;20487;-85
2021/04/23 02:51:27;;;;;;;4.37;3.40;;;2.80;99.90;;;;;;5058985;28;20996;-86
2021/04/23 02:53:54;;;;;;;6.60;3.43;;;2.80;99.90;;;;;;5053582;28;20983;-86
2021/04/23 02:56:25;;;;;;;5.30;3.33;;;2.70;99.90;;;;;;5053694;28;20978;-86
2021/04/23 02:58:55;;;;;;;5.17;2.90;;;2.80;99.90;;;;;;5052947;28;20440;-85
2021/04/23 03:01:24;;;;;;;7.03;3.27;;;2.80;99.90;;;;;;5053515;28;20459;-86
2021/04/23 03:03:52;;;;;;;4.80;3.00;;;2.70;99.90;;;;;;5053887;28;20438;-85
2021/04/23 03:06:21;;;;;;;3.83;2.70;;;2.70;99.90;;;;;;5052921;28;20453;-86
2021/04/23 03:08:47;;;;;;;6.53;4.23;;;2.60;99.90;;;;;;5056932;28;20868;-86
2021/04/23 03:11:16;;;;;;;4.93;3.70;;;2.60;99.90;;;;;;5055429;28;20449;-85
2021/04/23 03:13:45;;;;;;;7.97;3.00;;;2.50;99.90;;;;;;5055721;28;20958;-85
2021/04/23 03:16:14;;;;;;;8.07;3.67;;;2.40;99.90;;;;;;5065376;28;20479;-86
2021/04/23 03:18:44;;;;;;;5.50;3.20;;;2.50;99.90;;;;;;5057290;28;20513;-85
2021/04/23 03:21:12;;;;;;;6.60;3.70;;;2.60;99.90;;;;;;5059129;28;21051;-86
2021/04/23 03:24:08;;;;;;;6.97;3.90;;;2.70;99.90;;;;;;5056440;28;20491;-85
2021/04/23 03:26:54;;;;;;;5.30;3.93;;;2.60;99.90;;;;;;5066491;28;20514;-85
2021/04/23 03:29:20;;;;;;;5.77;4.07;;;2.50;99.90;;;;;;5057133;28;20429;-86
2021/04/23 03:31:46;;;;;;;4.13;3.70;;;2.40;99.90;;;;;;5049780;28;20671;-84
2021/04/23 03:34:12;;;;;;;5.70;3.63;;;2.40;99.90;;;;;;5055066;28;20178;-84
2021/04/23 03:36:38;;;;;;;5.60;3.50;;;2.50;99.90;;;;;;5054341;28;20492;-84
2021/04/23 03:39:07;;;;;;;5.13;3.63;;;2.60;99.90;;;;;;5057187;28;20952;-84
2021/04/23 03:41:34;;;;;;;4.37;3.83;;;2.60;99.90;;;;;;5056658;28;20467;-84
2021/04/23 03:44:01;;;;;;;5.93;4.10;;;2.60;99.90;;;;;;5054004;28;20471;-85
2021/04/23 03:46:27;;;;;;;9.57;4.53;;;2.40;99.90;;;;;;5055532;28;20474;-85
2021/04/23 03:48:54;;;;;;;8.30;4.67;;;2.30;99.90;;;;;;5049363;28;20444;-85
2021/04/23 03:51:21;;;;;;;7.03;4.20;;;2.10;99.90;;;;;;5055332;28;20447;-85
2021/04/23 03:53:48;;;;;;;4.80;4.10;;;2.10;99.90;;;;;;5057056;28;20959;-86
2021/04/23 03:56:15;;;;;;;8.00;3.73;;;2.00;99.90;;;;;;5050726;28;20830;-86
2021/04/23 03:58:42;;;;;;;6.00;3.87;;;2.10;99.90;;;;;;5052838;28;20448;-86
2021/04/23 04:01:14;;;;;;;5.73;3.63;;;2.10;99.90;;;;;;5051398;28;20521;-85
2021/04/23 04:03:46;;;;;;;6.10;4.10;;;2.00;99.90;;;;;;5064943;28;20445;-86
2021/04/23 04:06:12;;;;;;;5.73;3.70;;;2.00;99.90;;;;;;5052024;28;20475;-85
2021/04/23 04:08:42;;;;;;;4.97;3.53;;;2.00;99.90;;;;;;5069396;28;20825;-87
2021/04/23 04:11:34;;;;;;;5.10;3.83;;;2.00;99.90;;;;;;5069035;28;20233;-89
2021/04/23 04:14:04;;;;;;;6.77;4.10;;;2.00;99.90;;;;;;5054761;28;20544;-84
2021/04/23 04:16:29;;;;;;;6.10;3.90;;;2.00;99.90;;;;;;5053986;28;20985;-85
2021/04/23 04:18:55;;;;;;;6.00;3.30;;;1.90;99.90;;;;;;5056254;28;20199;-85
2021/04/23 04:21:20;;;;;;;5.63;3.40;;;1.80;99.90;;;;;;5073324;28;20225;-87
2021/04/23 04:23:52;;;;;;;5.77;4.10;;;1.80;99.90;;;;;;5050440;28;20187;-87
2021/04/23 04:26:20;;;;;;;5.03;3.13;;;1.90;99.90;;;;;;5053528;28;20548;-85
2021/04/23 04:28:49;;;;;;;4.80;3.27;;;1.90;99.90;;;;;;5070682;28;20440;-83
2021/04/23 04:31:26;;;;;;;4.20;3.33;;;1.90;99.90;;;;;;5055166;28;20444;-85
2021/04/23 04:37:36;;;;;;;5.60;3.00;;;1.80;99.90;;;;;;5074929;28;20779;-83
2021/04/23 04:40:05;;;;;;;8.87;3.37;;;1.80;99.90;;;;;;5057286;28;20444;-84
2021/04/23 04:42:31;;;;;;;4.10;2.90;;;1.90;99.90;;;;;;5055188;28;20570;-84
2021/04/23 04:45:00;;;;;;;6.97;2.70;;;2.10;99.90;;;;;;5054806;28;20443;-85
2021/04/23 04:47:40;;;;;;;4.80;3.20;;;2.10;99.90;;;;;;5064378;28;20233;-85
2021/04/23 04:50:15;;;;;;;7.60;3.63;;;2.20;99.90;;;;;;5073824;28;20464;-85
2021/04/23 04:52:41;;;;;;;8.60;4.20;;;2.10;99.90;;;;;;5057646;28;20471;-87
2021/04/23 04:55:08;;;;;;;4.53;3.27;;;2.10;99.90;;;;;;5070597;28;20599;-83
2021/04/23 04:57:35;;;;;;;7.40;3.93;;;2.10;99.90;;;;;;5055488;28;20471;-89
2021/04/23 05:00:02;;;;;;;6.40;3.20;;;2.10;99.90;;;;;;5055505;28;20448;-89
2021/04/23 05:02:28;;;;;;;6.43;3.30;;;2.20;99.90;;;;;;5053408;28;20862;-89
2021/04/23 05:04:54;;;;;;;5.93;3.30;;;2.30;99.90;;;;;;5056742;28;20580;-87
2021/04/23 05:07:19;;;;;;;4.80;3.27;;;2.50;99.90;;;;;;5052716;28;20226;-88
2021/04/23 05:09:45;;;;;;;5.13;3.87;;;2.60;99.90;;;;;;5052522;28;20448;-91
2021/04/23 05:12:11;;;;;;;10.03;3.70;;;2.70;99.90;;;;;;5056710;28;20676;-90
2021/04/23 05:14:36;;;;;;;6.00;3.20;;;3.00;99.90;;;;;;5057416;28;20754;-89
2021/04/23 05:17:02;;;;;;;11.73;3.73;;;3.10;99.90;;;;;;5061744;28;20593;-88
2021/04/23 05:19:28;;;;;;;4.77;3.40;;;3.20;99.90;;;;;;5056220;28;20468;-88
2021/04/23 05:21:55;;;;;;;7.00;3.30;;;3.30;99.90;;;;;;5060613;28;20215;-88
2021/04/23 05:24:20;;;;;;;6.90;3.60;;;3.30;99.90;;;;;;5057676;28;20235;-87
2021/04/23 05:26:48;;;;;;;6.50;3.90;;;3.40;99.90;;;;;;5056205;28;21622;-88
2021/04/23 05:29:13;;;;;;;6.53;3.20;;;3.30;99.90;;;;;;5052413;28;20202;-86
2021/04/23 05:31:39;;;;;;;7.70;3.83;;;3.40;99.90;;;;;;5037605;28;20448;-88
2021/04/23 05:34:09;;;;;;;5.07;3.43;;;3.40;99.90;;;;;;5052974;28;20684;-87
2021/04/23 05:36:35;;;;;;;5.30;3.20;;;3.40;99.90;;;;;;5073417;28;20618;-87
2021/04/23 05:39:01;;;;;;;7.00;3.13;;;3.40;99.90;;;;;;5054539;28;20514;-90
2021/04/23 05:41:26;;;;;;;8.67;3.67;;;3.50;99.90;;;;;;5051975;28;20468;-90
2021/04/23 05:43:52;;;;;;;9.83;3.67;;;3.50;99.90;;;;;;5054815;28;20238;-90
2021/04/23 05:46:18;;;;;;;7.07;3.50;;;3.70;99.90;;;;;;5057915;28;20190;-89
2021/04/23 05:48:45;;;;;;;7.47;3.43;;;3.90;99.90;;;;;;5052716;28;20296;-90
2021/04/23 05:51:12;;;;;;;10.70;3.57;;;4.00;99.90;;;;;;5052336;28;20512;-88
2021/04/23 05:53:37;;;;;;;12.07;4.37;;;4.10;99.90;;;;;;5053614;28;20436;-92
2021/04/23 05:56:03;;;;;;;10.13;4.07;;;4.10;99.90;;;;;;5054999;28;20479;-91
2021/04/23 05:58:29;;;;;;;7.40;3.80;;;4.20;99.90;;;;;;5060231;28;20521;-92
2021/04/23 06:00:55;;;;;;;6.07;3.63;;;4.30;99.90;;;;;;5055320;28;20456;-90
2021/04/23 06:03:22;;;;;;;5.47;3.63;;;4.40;99.90;;;;;;5071551;28;20182;-93
2021/04/23 06:05:47;;;;;;;9.90;4.43;;;4.50;99.90;;;;;;5054824;28;20481;-95
2021/04/23 06:08:13;;;;;;;10.40;4.53;;;4.70;99.90;;;;;;5051556;28;20778;-91
2021/04/23 06:10:44;;;;;;;8.20;4.13;;;4.80;99.90;;;;;;5065875;28;20194;-94
2021/04/23 06:13:11;;;;;;;7.20;4.10;;;4.90;99.90;;;;;;5058005;28;20437;-94
2021/04/23 06:15:36;;;;;;;7.50;4.20;;;5.10;99.90;;;;;;5057528;28;20639;-94
2021/04/23 06:18:11;;;;;;;6.13;4.20;;;5.20;99.50;;;;;;5051712;28;20447;-93
2021/04/23 06:20:37;;;;;;;5.70;4.47;;;5.30;99.70;;;;;;5056822;28;20459;-93
2021/04/23 06:23:12;;;;;;;5.40;4.07;;;5.30;99.70;;;;;;5056904;28;20934;-93
2021/04/23 06:25:38;;;;;;;9.20;4.90;;;5.40;99.30;;;;;;5054454;28;20512;-93
2021/04/23 06:28:07;;;;;;;4.90;3.70;;;5.60;99.90;;;;;;5056618;28;20786;-92
2021/04/23 06:30:35;;;;;;;8.13;4.40;;;5.60;98.80;;;;;;5058190;28;20432;-93
2021/04/23 06:33:25;;;;;;;10.57;4.73;;;5.70;99.10;;;;;;5045661;28;20448;-92
2021/04/23 06:35:51;;;;;;;9.70;4.30;;;5.70;98.30;;;;;;5065192;28;20492;-93
2021/04/23 06:38:17;;;;;;;6.63;4.40;;;5.80;98.40;;;;;;5061811;28;20437;-93
2021/04/23 06:40:43;;;;;;;6.60;3.97;;;6.10;99.10;;;;;;5054655;28;20195;-94
2021/04/23 06:43:09;;;;;;;6.97;4.77;;;6.20;97.60;;;;;;5059625;28;20428;-92
2021/04/23 06:45:35;;;;;;;7.50;4.10;;;6.30;97.00;;;;;;5058281;28;20195;-93
2021/04/23 06:48:02;;;;;;;9.70;4.90;;;6.40;96.60;;;;;;5058083;28;20475;-88
2021/04/23 06:50:28;;;;;;;8.50;4.67;;;6.50;96.80;;;;;;5059380;28;20460;-87
2021/04/23 06:52:54;;;;;;;5.50;5.00;;;6.60;97.10;;;;;;5056733;28;20443;-88
2021/04/23 06:55:21;;;;;;;8.90;4.63;;;6.90;96.70;;;;;;5053038;28;20481;-93
2021/04/23 06:57:47;;;;;;;8.13;3.87;;;7.20;96.10;;;;;;5049362;28;20453;-86
2021/04/23 07:00:24;;;;;;;12.73;5.67;;;7.30;95.90;;;;;;5055665;28;20447;-88
2021/04/23 07:03:14;;;;;;;9.00;5.00;;;7.40;96.30;;;;;;5072914;28;20788;-91
2021/04/23 07:05:42;;;;;;;10.77;4.97;;;7.50;96.80;;;;;;5040843;28;20868;-86
2021/04/23 07:08:08;;;;;;;6.37;4.47;;;7.80;96.60;;;;;;5055749;28;20446;-89
2021/04/23 07:10:35;;;;;;;6.40;4.17;;;8.10;96.10;;;;;;5055748;28;20451;-89
2021/04/23 07:13:02;;;;;;;10.00;5.13;;;8.20;95.10;;;;;;5061788;28;21004;-88
2021/04/23 07:15:29;;;;;;;5.23;3.93;;;8.20;95.10;;;;;;5053341;28;20570;-87
2021/04/23 07:17:55;;;;;;;5.73;4.13;;;8.40;95.20;;;;;;5057657;28;20432;-90
2021/04/23 07:20:22;;;;;;;5.60;4.10;;;8.50;94.10;;;;;;5062281;28;20769;-89
2021/04/23 07:22:49;;;;;;;6.30;4.20;;;8.70;95.20;;;;;;5051199;28;20547;-90
2021/04/23 07:25:16;;;;;;;6.00;4.83;;;8.90;93.60;;;;;;5054394;28;20847;-88
2021/04/23 07:27:42;;;;;;;8.40;4.83;;;9.10;92.70;;;;;;5056821;28;20448;-89
2021/04/23 07:30:11;;;;;;;5.90;4.30;;;9.20;91.80;;;;;;5055356;28;20920;-87
2021/04/23 07:32:37;;;;;;;8.00;4.60;;;9.30;91.40;;;;;;5053872;28;20958;-88
2021/04/23 07:35:03;;;;;;;6.47;3.70;;;9.50;91.50;;;;;;5053833;28;20574;-87
2021/04/23 07:37:29;;;;;;;7.80;3.50;;;9.70;90.80;;;;;;5055963;28;20455;-87
2021/04/23 07:39:55;;;;;;;7.70;4.43;;;9.90;89.90;;;;;;5052431;28;20442;-86
2021/04/23 07:42:20;;;;;;;8.73;3.90;;;10.00;89.30;;;;;;5050350;28;20680;-85
2021/04/23 07:44:48;;;;;;;8.90;4.27;;;10.20;89.40;;;;;;5056318;28;20246;-86
2021/04/23 07:47:14;;;;;;;9.23;4.60;;;10.40;88.20;;;;;;5054402;28;20289;-86
2021/04/23 07:49:39;;;;;;;9.77;4.90;;;10.40;85.50;;;;;;5054709;28;20848;-85
2021/04/23 07:52:05;;;;;;;7.17;4.80;;;10.50;85.70;;;;;;5055664;28;20213;-86
2021/04/23 07:54:32;;;;;;;8.23;4.10;;;10.50;90.50;;;;;;5055610;28;20184;-86
2021/04/23 07:56:57;;;;;;;7.13;3.60;;;10.60;88.50;;;;;;5054536;28;20674;-86
2021/04/23 07:59:23;;;;;;;8.57;3.87;;;10.80;86.70;;;;;;5054250;28;20445;-85
2021/04/23 08:01:53;;;;;;;15.30;6.37;;;10.90;85.30;;;;;;5060960;28;20201;-86
2021/04/23 08:04:19;;;;;;;11.60;4.53;;;11.10;87.30;;;;;;5059220;28;20432;-85
2021/04/23 08:06:45;;;;;;;11.83;4.20;;;11.30;82.80;;;;;;5054136;28;20539;-86
2021/04/23 08:09:11;;;;;;;8.17;3.77;;;11.30;84.70;;;;;;5051807;28;20202;-85
2021/04/23 08:11:36;;;;;;;5.47;4.20;;;11.00;79.60;;;;;;5060096;28;20311;-86
2021/04/23 08:14:02;;;;;;;7.80;3.87;;;10.90;84.10;;;;;;5055932;28;20208;-87
2021/04/23 08:16:28;;;;;;;11.17;4.00;;;11.20;84.30;;;;;;5059979;28;20285;-85
2021/04/23 08:18:54;;;;;;;7.30;4.07;;;11.50;84.20;;;;;;5063183;28;20490;-85
2021/04/23 08:21:24;;;;;;;17.73;4.53;;;11.80;78.20;;;;;;5059053;28;20681;-85
2021/04/23 08:23:49;;;;;;;6.07;3.73;;;12.10;74.90;;;;;;5058781;28;20205;-85
2021/04/23 08:26:16;;;;;;;11.20;4.33;;;12.30;72.70;;;;;;5079808;28;21214;-83
2021/04/23 08:28:42;;;;;;;10.20;3.70;;;12.30;74.80;;;;;;5059164;28;20187;-85
2021/04/23 08:31:08;;;;;;;7.90;4.10;;;12.40;75.20;;;;;;5055233;28;20456;-85
2021/04/23 08:33:34;;;;;;;6.87;4.47;;;11.90;75.00;;;;;;5056047;28;20485;-85
2021/04/23 08:36:00;;;;;;;10.57;6.93;;;12.00;77.50;;;;;;5058496;28;20476;-84
2021/04/23 08:38:25;;;;;;;6.87;4.87;;;12.10;70.50;;;;;;5056655;28;20213;-85
2021/04/23 08:40:53;;;;;;;8.23;4.83;;;12.20;74.30;;;;;;5054046;28;20587;-85
2021/04/23 08:43:19;;;;;;;7.80;5.13;;;12.30;72.80;;;;;;5060178;28;20592;-85
2021/04/23 08:45:45;;;;;;;7.73;5.90;;;12.50;76.60;;;;;;5063088;28;20501;-85
2021/04/23 08:48:12;;;;;;;7.27;5.90;;;12.60;70.50;;;;;;5055857;28;20506;-85
2021/04/23 08:50:38;;;;;;;8.33;5.37;;;12.80;72.80;;;;;;5059373;28;20293;-85
2021/04/23 08:53:04;;;;;;;5.50;4.90;;;12.90;69.50;;;;;;5058816;28;20950;-84
2021/04/23 08:55:31;;;;;;;10.47;5.30;;;12.90;64.40;;;;;;5063170;28;20520;-85
2021/04/23 08:57:57;;;;;;;5.93;4.00;;;12.30;62.90;;;;;;5058163;28;21008;-89
2021/04/23 09:00:25;;;;;;;6.70;4.50;;;12.20;62.10;;;;;;5057466;28;20795;-90
2021/04/23 09:02:51;;;;;;;6.37;3.90;;;12.40;72.90;;;;;;5062163;28;20865;-88
2021/04/23 09:05:17;;;;;;;6.53;4.40;;;12.90;72.90;;;;;;5059250;28;20460;-88
2021/04/23 09:07:58;;;;;;;12.07;5.20;;;13.40;65.10;;;;;;5058256;28;20183;-88
2021/04/23 09:10:24;;;;;;;7.60;4.50;;;13.70;71.00;;;;;;5058180;28;20803;-88
2021/04/23 09:13:08;;;;;;;11.50;6.30;;;13.80;68.10;;;;;;5058829;28;20432;-89
2021/04/23 09:15:35;;;;;;;7.93;4.57;;;13.90;68.30;;;;;;5058748;28;20525;-88
2021/04/23 09:18:06;;;;;;;8.67;4.87;;;13.80;65.20;;;;;;5059497;28;20451;-88
2021/04/23 09:20:32;;;;;;;6.90;4.80;;;13.90;63.60;;;;;;5071948;28;20808;-88
2021/04/23 09:23:20;;;;;;;9.73;5.17;;;14.20;64.10;;;;;;5061634;28;20440;-88
2021/04/23 09:25:52;;;;;;;6.23;4.53;;;14.30;66.10;;;;;;5058988;28;20456;-89
2021/04/23 09:28:39;;;;;;;4.93;4.20;;;14.00;56.30;;;;;;5062478;28;20440;-89
2021/04/23 09:31:29;;;;;;;9.40;5.00;;;13.90;60.50;;;;;;5059066;28;24276;-89
2021/04/23 09:34:03;;;;;;;11.93;5.50;;;13.80;60.10;;;;;;5058691;28;22069;-90
2021/04/23 09:36:36;;;;;;;9.47;5.00;;;14.00;58.40;;;;;;5055817;28;20506;-89
2021/04/23 09:39:15;;;;;;;7.93;5.00;;;14.30;61.80;;;;;;5053127;28;20857;-91
2021/04/23 09:41:47;;;;;;;10.23;5.20;;;14.50;59.40;;;;;;5056429;28;20822;-90
2021/04/23 09:44:34;;;;;;;8.37;5.27;;;14.80;65.40;;;;;;5055714;28;20457;-91
2021/04/23 09:47:24;;;;;;;10.63;5.63;;;15.20;59.00;;;;;;5058662;28;21167;-89
2021/04/23 09:49:55;;;;;;;10.83;5.60;;;15.10;57.00;;;;;;5047749;28;20949;-90
2021/04/23 09:52:22;;;;;;;11.50;6.43;;;14.50;53.60;;;;;;5057363;28;20726;-89
2021/04/23 09:54:52;;;;;;;8.80;5.70;;;14.40;55.00;;;;;;5056363;28;20554;-88
2021/04/23 09:57:31;;;;;;;7.90;5.00;;;13.60;54.70;;;;;;5058874;28;20440;-88
2021/04/23 09:59:59;;;;;;;7.90;5.43;;;13.30;57.70;;;;;;5071590;28;20448;-89
2021/04/23 10:02:30;;;;;;;8.63;5.13;;;13.50;58.80;;;;;;5049206;28;20717;-91
2021/04/23 10:05:34;;;;;;;9.60;5.73;;;14.00;61.90;;;;;;5063444;28;21076;-95
2021/04/23 10:08:07;;;;;;;9.00;4.77;;;14.80;63.60;;;;;;5051273;28;20468;-92
2021/04/23 10:10:35;;;;;;;10.77;6.00;;;15.40;61.60;;;;;;5049278;28;20490;-91
2021/04/23 10:13:03;;;;;;;8.37;5.93;;;15.80;66.80;;;;;;5050614;28;20460;-89
2021/04/23 10:15:34;;;;;;;11.40;6.60;;;16.00;57.30;;;;;;5049464;28;21094;-90
2021/04/23 10:18:15;;;;;;;8.03;5.70;;;16.20;59.90;;;;;;5050578;28;20421;-91
2021/04/23 10:20:48;;;;;;;8.83;5.93;;;16.30;53.20;;;;;;5054010;28;20468;-90
2021/04/23 10:23:20;;;;;;;12.00;6.57;;;15.50;52.00;;;;;;5051628;28;20523;-90
2021/04/23 10:25:46;;;;;;;7.60;6.03;;;15.00;53.20;;;;;;5055101;28;20740;-91
2021/04/23 10:28:17;;;;;;;7.83;6.00;;;15.40;56.80;;;;;;5050813;28;20455;-91
2021/04/23 10:30:45;;;;;;;9.83;6.47;;;15.80;57.30;;;;;;5051851;28;20509;-90
2021/04/23 10:33:16;;;;;;;10.83;6.87;;;16.10;56.20;;;;;;5034732;28;20453;-90
2021/04/23 10:35:44;;;;;;;9.73;6.47;;;15.90;52.00;;;;;;5048110;28;20649;-90
2021/04/23 10:38:14;;;;;;;7.87;6.63;;;15.30;51.00;;;;;;5051015;28;20436;-90
2021/04/23 10:40:42;;;;;;;9.20;6.00;;;15.20;51.50;;;;;;5067982;28;20440;-90
2021/04/23 10:43:16;;;;;;;9.50;6.40;;;15.40;53.60;;;;;;5048310;28;20453;-89
2021/04/23 10:45:48;;;;;;;11.30;6.50;;;15.40;52.10;;;;;;5054219;28;20510;-90
2021/04/23 10:48:14;;;;;;;12.40;6.67;;;15.10;50.40;;;;;;5052853;28;20448;-90
2021/04/23 10:50:49;;;;;;;7.57;5.80;;;15.10;50.70;;;;;;5057081;28;20440;-90
2021/04/23 10:53:20;;;;;;;7.20;5.00;;;15.20;49.30;;;;;;5051890;28;20456;-90
2021/04/23 10:55:53;;;;;;;9.90;6.20;;;15.00;51.90;;;;;;5050221;28;20590;-92
2021/04/23 10:58:28;;;;;;;9.70;5.63;;;15.30;52.20;;;;;;5048646;28;21011;-89
2021/04/23 11:01:00;;;;;;;8.67;5.00;;;15.50;48.70;;;;;;5051653;28;20471;-89
2021/04/23 11:03:37;;;;;;;6.23;4.80;;;16.00;51.90;;;;;;5049164;28;21005;-95
2021/04/23 11:06:27;;;;;;;9.20;5.00;;;16.20;48.00;;;;;;5054844;28;20448;-92
2021/04/23 11:09:03;;;;;;;10.97;5.30;;;16.30;46.60;;;;;;5048586;28;20493;-90
2021/04/23 11:11:31;;;;;;;8.60;5.13;;;16.10;46.20;;;;;;5069054;28;20935;-90
2021/04/23 11:14:23;;;;;;;7.40;5.03;;;16.70;52.70;;;;;;5051680;28;20436;-91
2021/04/23 11:16:50;;;;;;;5.83;4.93;;;17.20;46.00;;;;;;5045899;28;20556;-90
2021/04/23 11:19:19;;;;;;;8.20;5.30;;;16.50;44.70;;;;;;5036926;28;20449;-91
2021/04/23 11:21:52;;;;;;;7.53;5.60;;;17.10;53.60;;;;;;5064544;28;20461;-91
2021/04/23 11:24:45;;;;;;;9.50;4.70;;;17.40;44.60;;;;;;5070722;28;20440;-89
2021/04/23 11:27:24;;;;;;;7.37;5.63;;;17.70;45.50;;;;;;5062862;28;20456;-89
2021/04/23 11:29:57;;;;;;;9.10;5.07;;;16.90;43.60;;;;;;5036342;28;20445;-89
2021/04/23 11:32:23;;;;;;;8.20;5.47;;;17.30;45.40;;;;;;5066496;28;20513;-89
2021/04/23 11:35:34;;;;;;;9.37;5.57;;;17.70;45.40;;;;;;5055490;28;20965;-91
2021/04/23 11:38:00;;;;;;;8.20;5.27;;;18.20;49.00;;;;;;5055863;28;20206;-91
2021/04/23 11:40:28;;;;;;;7.33;5.47;;;17.80;41.20;;;;;;5049980;28;20901;-93
2021/04/23 11:43:02;;;;;;;9.03;5.87;;;17.20;41.20;;;;;;5058725;28;20184;-92
2021/04/23 11:45:33;;;;;;;8.83;5.30;;;16.70;40.60;;;;;;5071152;28;20452;-91
2021/04/23 11:48:09;;;;;;;8.20;6.67;;;17.00;39.90;;;;;;5051921;28;20436;-92
2021/04/23 11:50:39;;;;;;;8.67;5.23;;;17.50;41.30;;;;;;5047275;28;20437;-91
2021/04/23 11:53:10;;;;;;;10.97;7.10;;;17.80;42.60;;;;;;5050074;28;21007;-91
2021/04/23 11:55:47;;;;;;;8.63;7.07;;;17.50;43.80;;;;;;5055549;28;20502;-87
2021/04/23 11:58:18;;;;;;;10.03;5.57;;;18.00;43.30;;;;;;5047228;28;20446;-86
2021/04/23 12:00:52;;;;;;;8.60;5.30;;;18.10;40.10;;;;;;5055228;28;20586;-88
2021/04/23 12:03:19;;;;;;;10.50;7.63;;;17.70;40.20;;;;;;5058716;28;20519;-88
2021/04/23 12:05:48;;;;;;;8.07;5.97;;;17.40;43.40;;;;;;5052401;28;20862;-87
2021/04/23 12:08:31;;;;;;;7.70;5.33;;;17.80;42.40;;;;;;5054844;28;20448;-86
2021/04/23 12:13:49;;;;;;;7.60;5.33;;;19.30;44.50;;;;;;5070481;28;20558;-88
2021/04/23 12:16:15;;;;;;;8.17;5.90;;;18.50;37.90;;;;;;5074876;28;20475;-88
2021/04/23 12:18:54;;;;;;;9.07;5.33;;;18.10;41.70;;;;;;5051715;28;20951;-89
2021/04/23 12:21:21;;;;;;;6.77;5.50;;;18.30;41.50;;;;;;5053737;28;20463;-88
2021/04/23 12:23:51;;;;;;;11.27;5.30;;;18.10;38.90;;;;;;5066537;28;20468;-88
2021/04/23 12:26:16;;;;;;;8.13;5.50;;;17.80;38.10;;;;;;5049980;28;21000;-88
2021/04/23 12:28:53;;;;;;;10.50;4.60;;;17.90;38.60;;;;;;5050713;28;20431;-86
2021/04/23 12:31:22;;;;;;;5.73;5.10;;;17.90;38.60;;;;;;5052273;28;20185;-88
2021/04/23 12:33:57;;;;;;;6.43;4.50;;;18.30;39.20;;;;;;5048016;28;20573;-89
2021/04/23 12:36:45;;;;;;;7.60;4.50;;;18.50;40.80;;;;;;5047910;28;20522;-88
2021/04/23 12:39:23;;;;;;;8.27;5.23;;;19.20;39.40;;;;;;5052972;28;20451;-88
2021/04/23 12:42:09;;;;;;;8.00;5.30;;;19.00;38.20;;;;;;5047650;28;20484;-88
2021/04/23 12:44:40;;;;;;;10.47;5.87;;;18.50;36.30;;;;;;5049874;28;20594;-88
2021/04/23 12:47:10;;;;;;;7.50;5.10;;;18.50;39.50;;;;;;5050539;28;20447;-88
2021/04/23 12:49:50;;;;;;;9.40;5.73;;;19.30;41.10;;;;;;5054695;28;20482;-89
2021/04/23 12:52:19;;;;;;;8.60;5.70;;;19.50;38.10;;;;;;5050950;28;20444;-89
2021/04/23 12:54:51;;;;;;;9.33;4.70;;;20.00;41.40;;;;;;5050328;28;20507;-89
2021/04/23 12:57:27;;;;;;;6.07;5.10;;;20.60;38.80;;;;;;5053585;28;20534;-88
2021/04/23 13:00:13;;;;;;;9.07;4.90;;;20.60;39.60;;;;;;5054299;28;20531;-89
2021/04/23 13:02:44;;;;;;;7.00;5.53;;;20.50;38.10;;;;;;5063562;28;20562;-89
2021/04/23 13:05:14;;;;;;;8.13;5.33;;;19.80;36.20;;;;;;5051523;28;20447;-90
2021/04/23 13:08:05;;;;;;;6.67;4.87;;;19.00;34.60;;;;;;5054225;28;20548;-88
2021/04/23 13:10:49;;;;;;;7.23;5.20;;;18.70;35.90;;;;;;5051760;28;21003;-92
2021/04/23 13:13:20;;;;;;;6.23;5.30;;;18.70;36.90;;;;;;5047794;28;20467;-89
2021/04/23 13:16:02;;;;;;;8.50;5.00;;;19.40;39.20;;;;;;5048656;28;20487;-89
2021/04/23 13:18:30;;;;;;;9.00;5.70;;;20.60;40.40;;;;;;5048938;28;20447;-88
2021/04/23 13:21:03;;;;;;;10.10;4.70;;;20.90;33.60;;;;;;5061451;28;20513;-88